Time;durP1;ratioP1;P1;durP2;ratioP2;P2;SDS_P1;SDS_P2;PMS_P1;PMS_P2;Temp;Humidity;BMP_temperature;BMP_pressure;BME280_temperature;BME280_humidity;BME280_pressure;Samples;Min_cycle;Max_cycle;Signal;HPM_P1;HPM_P2
2023/09/05 00:01:12;;;;;;;13.25;10.35;;;15.90;97.20;;;;;;5098816;28;20047;-62
2023/09/05 00:03:38;;;;;;;14.02;11.10;;;15.80;97.20;;;;;;5098318;28;20068;-62
2023/09/05 00:06:05;;;;;;;13.32;10.90;;;15.80;97.10;;;;;;5097994;28;20051;-62
2023/09/05 00:08:31;;;;;;;14.18;11.18;;;15.70;98.80;;;;;;5098240;28;20580;-64
2023/09/05 00:11:04;;;;;;;15.20;11.13;;;15.70;98.50;;;;;;5099628;28;20067;-64
2023/09/05 00:13:29;;;;;;;14.10;11.23;;;15.70;99.90;;;;;;5098470;28;20133;-64
2023/09/05 00:15:57;;;;;;;14.35;12.07;;;15.60;99.90;;;;;;5098544;28;20055;-64
2023/09/05 00:18:23;;;;;;;16.23;11.88;;;15.60;99.90;;;;;;5098745;28;20048;-62
2023/09/05 00:20:54;;;;;;;15.60;12.30;;;15.60;99.90;;;;;;5098139;28;20079;-61
2023/09/05 00:23:24;;;;;;;16.77;12.68;;;15.60;99.90;;;;;;5098202;28;20048;-62
2023/09/05 00:25:50;;;;;;;15.48;13.63;;;15.60;99.90;;;;;;5097696;28;20405;-62
2023/09/05 00:28:18;;;;;;;18.20;13.52;;;15.60;99.90;;;;;;5099523;28;20036;-62
2023/09/05 00:30:45;;;;;;;15.82;13.20;;;15.50;99.90;;;;;;5098403;28;20066;-62
2023/09/05 00:33:10;;;;;;;16.15;12.25;;;15.50;99.90;;;;;;5098354;28;20063;-62
2023/09/05 00:35:36;;;;;;;18.50;14.35;;;15.50;99.90;;;;;;5099013;28;20052;-62
2023/09/05 00:38:03;;;;;;;18.63;14.50;;;15.50;99.90;;;;;;5098132;28;20040;-62
2023/09/05 00:40:29;;;;;;;17.30;13.88;;;15.40;99.90;;;;;;5098915;28;20044;-62
2023/09/05 00:42:56;;;;;;;16.48;13.70;;;15.50;99.90;;;;;;5097909;28;20062;-62
2023/09/05 00:45:22;;;;;;;17.33;14.18;;;15.40;99.90;;;;;;5099451;28;20032;-62
2023/09/05 00:47:48;;;;;;;17.67;14.30;;;15.50;99.90;;;;;;5101850;28;20126;-63
2023/09/05 00:50:18;;;;;;;18.77;14.48;;;15.50;99.90;;;;;;5102165;28;20169;-64
2023/09/05 00:52:47;;;;;;;17.20;13.45;;;15.50;99.90;;;;;;5102444;28;20044;-61
2023/09/05 00:55:13;;;;;;;18.38;14.25;;;15.50;99.90;;;;;;5109652;28;20153;-62
2023/09/05 00:57:40;;;;;;;16.10;13.85;;;15.50;99.90;;;;;;5123264;28;20031;-61
2023/09/05 01:00:10;;;;;;;17.27;14.13;;;15.50;99.90;;;;;;5122157;28;20035;-61
2023/09/05 01:02:36;;;;;;;17.92;13.98;;;15.50;99.90;;;;;;5123299;28;20067;-61
2023/09/05 01:05:04;;;;;;;17.17;13.52;;;15.50;99.90;;;;;;5122537;28;20094;-61
2023/09/05 01:07:48;;;;;;;18.45;14.25;;;15.50;99.90;;;;;;5122007;27;20077;-61
2023/09/05 01:10:23;;;;;;;16.60;13.63;;;15.50;99.90;;;;;;5122839;28;20352;-62
2023/09/05 01:12:49;;;;;;;15.30;13.02;;;15.50;99.90;;;;;;5121485;28;20048;-63
2023/09/05 01:15:15;;;;;;;17.73;13.32;;;15.50;99.90;;;;;;5123092;28;20103;-62
2023/09/05 01:17:43;;;;;;;17.35;13.85;;;15.50;99.90;;;;;;5121777;28;20047;-62
2023/09/05 01:20:10;;;;;;;15.88;13.82;;;15.50;99.90;;;;;;5121533;28;20048;-61
2023/09/05 01:22:59;;;;;;;17.92;13.40;;;15.50;99.90;;;;;;5122150;28;20306;-63
2023/09/05 01:25:27;;;;;;;18.13;12.85;;;15.50;99.90;;;;;;5121423;28;20043;-64
2023/09/05 01:27:54;;;;;;;17.77;13.52;;;15.60;99.90;;;;;;5122873;28;20052;-64
2023/09/05 01:30:20;;;;;;;17.88;13.45;;;15.50;99.90;;;;;;5121177;28;20054;-64
2023/09/05 01:32:46;;;;;;;18.60;13.18;;;15.50;99.90;;;;;;5122180;28;20044;-62
2023/09/05 01:35:12;;;;;;;15.95;12.45;;;15.50;99.90;;;;;;5120820;28;20055;-62
2023/09/05 01:37:37;;;;;;;16.38;12.55;;;15.50;99.90;;;;;;5121218;28;20082;-61
2023/09/05 01:40:04;;;;;;;16.23;13.38;;;15.50;99.90;;;;;;5122188;28;20107;-62
2023/09/05 01:42:29;;;;;;;21.35;13.38;;;15.50;99.90;;;;;;5120899;28;20131;-62
2023/09/05 01:44:55;;;;;;;16.45;12.90;;;15.50;99.90;;;;;;5122350;28;20040;-62
2023/09/05 01:47:21;;;;;;;15.85;12.88;;;15.40;99.90;;;;;;5120925;28;20035;-64
2023/09/05 01:49:46;;;;;;;16.55;12.43;;;15.40;99.90;;;;;;5122019;28;20040;-62
2023/09/05 01:52:12;;;;;;;14.35;11.68;;;15.40;99.90;;;;;;5121578;28;20074;-62
2023/09/05 01:54:40;;;;;;;16.48;12.13;;;15.40;99.90;;;;;;5116423;28;20052;-62
2023/09/05 01:57:06;;;;;;;15.10;11.52;;;15.40;99.90;;;;;;5100915;28;20055;-62
2023/09/05 01:59:31;;;;;;;15.20;11.68;;;15.40;99.90;;;;;;5099158;28;20044;-61
2023/09/05 02:01:57;;;;;;;15.40;11.85;;;15.40;99.90;;;;;;5101482;28;20388;-62
2023/09/05 02:04:23;;;;;;;14.65;11.85;;;15.40;99.90;;;;;;5100354;28;20055;-62
2023/09/05 02:06:48;;;;;;;14.50;10.70;;;15.40;99.90;;;;;;5100265;28;20078;-62
2023/09/05 02:09:14;;;;;;;15.52;11.75;;;15.30;99.90;;;;;;5099392;28;20426;-62
2023/09/05 02:11:40;;;;;;;14.02;11.23;;;15.30;99.90;;;;;;5100419;28;20446;-65
2023/09/05 02:14:05;;;;;;;15.98;12.05;;;15.30;99.90;;;;;;5100685;28;20150;-62
2023/09/05 02:16:33;;;;;;;14.00;11.38;;;15.30;99.90;;;;;;5100004;28;20108;-62
2023/09/05 02:18:58;;;;;;;15.80;10.45;;;15.30;99.90;;;;;;5100843;28;20052;-64
2023/09/05 02:21:24;;;;;;;13.75;11.10;;;15.30;99.90;;;;;;5099424;28;20499;-62
2023/09/05 02:23:50;;;;;;;15.63;10.82;;;15.20;99.90;;;;;;5100879;28;20055;-63
2023/09/05 02:26:15;;;;;;;13.45;11.05;;;15.20;99.90;;;;;;5100088;28;20052;-61
2023/09/05 02:28:41;;;;;;;15.48;11.77;;;15.20;99.90;;;;;;5098570;28;20040;-61
2023/09/05 02:31:07;;;;;;;15.63;11.02;;;15.20;99.90;;;;;;5100342;28;20036;-62
2023/09/05 02:33:37;;;;;;;13.68;11.05;;;15.20;99.90;;;;;;5095026;28;20057;-62
2023/09/05 02:36:18;;;;;;;15.35;11.75;;;15.20;99.90;;;;;;5100681;28;20036;-62
2023/09/05 02:38:44;;;;;;;13.37;10.37;;;15.20;99.90;;;;;;5099273;28;20051;-63
2023/09/05 02:41:14;;;;;;;13.65;10.73;;;15.20;99.90;;;;;;5100468;28;20948;-62
2023/09/05 02:43:40;;;;;;;13.95;10.70;;;15.20;99.90;;;;;;5100270;28;20134;-62
2023/09/05 02:46:07;;;;;;;12.93;10.15;;;15.20;99.90;;;;;;5099703;28;20059;-62
2023/09/05 02:48:38;;;;;;;15.68;10.57;;;15.20;99.90;;;;;;5100103;28;20051;-61
2023/09/05 02:51:09;;;;;;;12.82;10.38;;;15.20;99.90;;;;;;5099344;28;20173;-62
2023/09/05 02:53:35;;;;;;;14.07;10.88;;;15.20;99.90;;;;;;5100617;28;20044;-63
2023/09/05 02:56:01;;;;;;;14.15;10.07;;;15.10;99.90;;;;;;5114400;28;20043;-62
2023/09/05 02:58:28;;;;;;;15.65;10.25;;;15.20;99.90;;;;;;5120493;28;20077;-62
2023/09/05 03:01:01;;;;;;;14.65;10.02;;;15.10;99.90;;;;;;5119160;28;20051;-62
2023/09/05 03:03:27;;;;;;;13.38;10.10;;;15.10;99.90;;;;;;5119294;28;20043;-62
2023/09/05 03:05:53;;;;;;;14.00;10.27;;;15.10;99.90;;;;;;5120505;28;20054;-62
2023/09/05 03:08:19;;;;;;;13.10;10.32;;;15.10;99.90;;;;;;5119167;28;20075;-62
2023/09/05 03:10:51;;;;;;;15.30;10.60;;;15.10;99.90;;;;;;5119043;28;20137;-62
2023/09/05 03:13:17;;;;;;;13.40;10.55;;;15.10;99.90;;;;;;5119646;28;20110;-61
2023/09/05 03:15:43;;;;;;;12.90;10.02;;;15.10;99.90;;;;;;5120335;28;20051;-62
2023/09/05 03:18:09;;;;;;;12.90;9.57;;;15.00;99.90;;;;;;5120043;28;20074;-64
2023/09/05 03:20:35;;;;;;;16.02;11.38;;;15.00;99.90;;;;;;5119342;28;20241;-64
2023/09/05 03:23:00;;;;;;;14.25;10.45;;;15.00;99.90;;;;;;5120101;28;20078;-62
2023/09/05 03:25:26;;;;;;;13.20;9.85;;;15.00;99.90;;;;;;5118709;28;20044;-62
2023/09/05 03:27:52;;;;;;;14.23;10.25;;;15.00;99.90;;;;;;5120284;28;20035;-62
2023/09/05 03:30:17;;;;;;;13.93;10.23;;;14.90;99.90;;;;;;5119105;28;20118;-62
2023/09/05 03:32:43;;;;;;;14.70;10.70;;;15.00;99.90;;;;;;5119841;28;20059;-62
2023/09/05 03:35:10;;;;;;;12.85;10.20;;;15.00;99.90;;;;;;5119710;28;20043;-62
2023/09/05 03:37:35;;;;;;;14.93;10.68;;;15.00;99.90;;;;;;5118940;28;20043;-63
2023/09/05 03:40:01;;;;;;;13.45;9.88;;;14.90;99.90;;;;;;5119864;28;20050;-63
2023/09/05 03:42:27;;;;;;;12.50;10.73;;;15.00;99.90;;;;;;5118671;28;20043;-62
2023/09/05 03:44:52;;;;;;;12.45;10.00;;;14.90;99.90;;;;;;5104444;28;20069;-63
2023/09/05 03:47:18;;;;;;;14.30;9.85;;;15.00;99.90;;;;;;5098455;28;20173;-62
2023/09/05 03:49:44;;;;;;;13.50;10.18;;;14.90;99.90;;;;;;5099568;28;20105;-62
2023/09/05 03:52:09;;;;;;;14.05;10.57;;;14.90;99.90;;;;;;5098511;28;20055;-63
2023/09/05 03:54:35;;;;;;;13.25;10.43;;;14.90;99.90;;;;;;5101880;28;20036;-62
2023/09/05 03:57:01;;;;;;;13.32;10.27;;;14.90;99.90;;;;;;5119108;28;20051;-62
2023/09/05 03:59:27;;;;;;;14.98;10.45;;;14.90;99.90;;;;;;5118639;28;20076;-62
2023/09/05 04:01:52;;;;;;;12.02;9.48;;;14.80;99.90;;;;;;5119949;28;20077;-62
2023/09/05 04:04:18;;;;;;;12.70;10.02;;;14.80;99.90;;;;;;5118502;28;20046;-63
2023/09/05 04:06:44;;;;;;;13.27;10.45;;;14.90;99.90;;;;;;5119994;28;20103;-63
2023/09/05 04:09:09;;;;;;;11.80;9.30;;;14.90;99.90;;;;;;5119174;28;20047;-63
2023/09/05 04:11:35;;;;;;;14.32;9.60;;;14.90;99.90;;;;;;5119356;28;20047;-63
2023/09/05 04:14:01;;;;;;;12.70;9.38;;;14.80;99.90;;;;;;5118161;28;20040;-62
2023/09/05 04:16:26;;;;;;;14.00;10.00;;;14.80;99.90;;;;;;5118558;28;20047;-63
2023/09/05 04:18:52;;;;;;;14.68;10.10;;;14.80;99.90;;;;;;5117811;28;20039;-62
2023/09/05 04:21:18;;;;;;;12.93;10.15;;;14.80;99.90;;;;;;5119534;28;20068;-63
2023/09/05 04:23:43;;;;;;;14.05;10.32;;;14.80;99.90;;;;;;5124083;28;20108;-62
2023/09/05 04:26:09;;;;;;;13.45;10.38;;;14.70;99.90;;;;;;5122630;28;20104;-62
2023/09/05 04:28:35;;;;;;;13.85;10.70;;;14.70;99.90;;;;;;5123093;28;20092;-63
2023/09/05 04:31:03;;;;;;;15.25;10.85;;;14.70;99.90;;;;;;5123248;28;20040;-62
2023/09/05 04:33:37;;;;;;;13.48;10.25;;;14.70;99.90;;;;;;5122110;28;20073;-62
2023/09/05 04:36:11;;;;;;;13.30;10.13;;;14.70;99.90;;;;;;5123252;28;20078;-62
2023/09/05 04:38:38;;;;;;;13.35;10.18;;;14.60;99.90;;;;;;5122368;28;20044;-62
2023/09/05 04:41:05;;;;;;;12.65;9.70;;;14.60;99.90;;;;;;5106908;28;20043;-62
2023/09/05 04:43:31;;;;;;;13.60;10.13;;;14.60;99.90;;;;;;5102404;28;20407;-61
2023/09/05 04:45:57;;;;;;;14.70;10.52;;;14.70;99.90;;;;;;5101846;28;20054;-62
2023/09/05 04:48:24;;;;;;;15.15;10.95;;;14.70;99.90;;;;;;5102388;28;20168;-62
2023/09/05 04:50:50;;;;;;;14.32;10.40;;;14.70;99.90;;;;;;5101392;28;20059;-61
2023/09/05 04:53:15;;;;;;;16.73;10.45;;;14.70;99.90;;;;;;5102723;28;20036;-62
2023/09/05 04:55:45;;;;;;;14.43;10.98;;;14.70;99.90;;;;;;5113297;28;20048;-62
2023/09/05 04:58:13;;;;;;;14.05;10.95;;;14.60;99.90;;;;;;5123119;28;20040;-62
2023/09/05 05:00:43;;;;;;;15.68;10.70;;;14.70;99.90;;;;;;5122216;28;20051;-62
2023/09/05 05:03:09;;;;;;;14.23;11.27;;;14.70;99.90;;;;;;5121978;28;20082;-62
2023/09/05 05:05:35;;;;;;;14.68;10.75;;;14.80;99.90;;;;;;5122888;28;20036;-62
2023/09/05 05:08:01;;;;;;;13.65;10.90;;;14.70;99.90;;;;;;5120324;28;20082;-63
2023/09/05 05:10:27;;;;;;;15.07;10.60;;;14.70;99.90;;;;;;5123017;28;20043;-63
2023/09/05 05:12:52;;;;;;;13.93;10.98;;;14.70;99.90;;;;;;5121799;28;20081;-62
2023/09/05 05:15:18;;;;;;;13.35;10.68;;;14.70;99.90;;;;;;5122983;28;20050;-64
2023/09/05 05:17:44;;;;;;;15.50;10.50;;;14.80;99.90;;;;;;5121738;28;20039;-61
2023/09/05 05:20:10;;;;;;;14.30;10.60;;;14.70;99.90;;;;;;5121559;28;20051;-63
2023/09/05 05:22:35;;;;;;;14.57;10.13;;;14.80;99.90;;;;;;5120858;28;20040;-62
2023/09/05 05:25:02;;;;;;;14.88;10.50;;;14.70;99.90;;;;;;5121148;28;20043;-62
2023/09/05 05:27:28;;;;;;;13.95;10.48;;;14.70;99.90;;;;;;5122659;28;20051;-62
2023/09/05 05:29:54;;;;;;;17.42;10.80;;;14.80;99.90;;;;;;5121373;28;20043;-61
2023/09/05 05:32:19;;;;;;;13.45;10.32;;;14.80;99.90;;;;;;5118220;28;20051;-62
2023/09/05 05:34:48;;;;;;;14.50;10.82;;;14.80;99.90;;;;;;5117779;28;20103;-61
2023/09/05 05:37:16;;;;;;;15.07;10.32;;;14.90;99.90;;;;;;5117867;28;20610;-62
2023/09/05 05:39:42;;;;;;;15.07;10.60;;;14.90;99.90;;;;;;5116919;28;20036;-62
2023/09/05 05:42:07;;;;;;;14.40;11.20;;;14.90;99.90;;;;;;5116575;28;20047;-61
2023/09/05 05:44:33;;;;;;;14.95;10.43;;;14.90;99.90;;;;;;5118061;28;20043;-62
2023/09/05 05:46:59;;;;;;;14.30;10.82;;;15.00;99.90;;;;;;5116942;28;20047;-60
2023/09/05 05:49:32;;;;;;;14.98;10.60;;;15.00;99.90;;;;;;5119183;28;20051;-62
2023/09/05 05:51:59;;;;;;;15.07;10.70;;;15.10;99.90;;;;;;5118012;28;20480;-61
2023/09/05 05:54:25;;;;;;;14.63;10.82;;;15.10;99.90;;;;;;5116539;28;20051;-63
2023/09/05 05:56:53;;;;;;;14.57;10.27;;;15.20;99.90;;;;;;5097476;28;20051;-61
2023/09/05 05:59:19;;;;;;;15.45;10.43;;;15.20;99.90;;;;;;5096424;28;20133;-62
2023/09/05 06:01:44;;;;;;;14.90;10.63;;;15.30;99.90;;;;;;5097737;28;20044;-61
2023/09/05 06:04:12;;;;;;;15.40;11.10;;;15.30;99.90;;;;;;5096603;28;20064;-62
2023/09/05 06:06:39;;;;;;;16.88;11.00;;;15.30;99.90;;;;;;5097019;28;20094;-61
2023/09/05 06:09:05;;;;;;;13.65;10.68;;;15.40;99.90;;;;;;5096780;28;20342;-62
2023/09/05 06:11:30;;;;;;;15.48;10.90;;;15.40;99.90;;;;;;5096551;28;20067;-62
2023/09/05 06:13:56;;;;;;;14.73;10.88;;;15.50;99.90;;;;;;5097205;28;20539;-62
2023/09/05 06:16:22;;;;;;;15.95;10.98;;;15.50;99.90;;;;;;5094553;28;20044;-62
2023/09/05 06:18:47;;;;;;;15.30;11.02;;;15.70;99.90;;;;;;5096754;28;20055;-61
2023/09/05 06:21:13;;;;;;;14.88;10.30;;;15.70;99.90;;;;;;5095394;28;20514;-62
2023/09/05 06:23:39;;;;;;;15.75;10.70;;;15.80;99.90;;;;;;5097120;28;20155;-62
2023/09/05 06:26:04;;;;;;;14.80;10.55;;;15.80;99.90;;;;;;5096007;28;20495;-62
2023/09/05 06:28:30;;;;;;;16.42;10.77;;;15.80;99.90;;;;;;5096553;28;20078;-62
2023/09/05 06:30:59;;;;;;;16.77;11.50;;;15.90;99.90;;;;;;5094488;28;20131;-61
2023/09/05 06:33:26;;;;;;;15.05;11.63;;;16.00;99.90;;;;;;5095384;28;20044;-62
2023/09/05 06:35:52;;;;;;;14.70;11.27;;;16.00;99.90;;;;;;5096641;28;20044;-61
2023/09/05 06:38:21;;;;;;;16.00;11.73;;;16.10;99.90;;;;;;5095732;28;20107;-62
2023/09/05 06:40:47;;;;;;;16.90;11.63;;;16.10;99.90;;;;;;5096860;28;20144;-62
2023/09/05 06:43:12;;;;;;;18.92;11.57;;;16.20;99.90;;;;;;5078957;28;20052;-62
2023/09/05 06:45:38;;;;;;;15.50;10.82;;;16.20;99.90;;;;;;5075282;28;20057;-60
2023/09/05 06:48:04;;;;;;;15.05;11.38;;;16.30;99.90;;;;;;5075474;28;20483;-62
2023/09/05 06:50:29;;;;;;;15.52;11.35;;;16.40;99.90;;;;;;5075012;28;20060;-63
2023/09/05 06:52:55;;;;;;;16.38;11.23;;;16.50;99.90;;;;;;5094768;28;20040;-62
2023/09/05 06:55:21;;;;;;;14.65;11.00;;;16.60;99.90;;;;;;5104429;28;20043;-62
2023/09/05 06:57:47;;;;;;;16.65;11.32;;;16.70;99.90;;;;;;5116597;28;20039;-62
2023/09/05 07:00:12;;;;;;;15.23;11.32;;;16.80;99.90;;;;;;5115930;28;20083;-63
2023/09/05 07:02:38;;;;;;;18.17;11.30;;;16.90;99.90;;;;;;5118809;28;20039;-62
2023/09/05 07:05:04;;;;;;;16.70;12.20;;;17.00;99.90;;;;;;5119940;28;20078;-62
2023/09/05 07:07:30;;;;;;;17.00;11.65;;;17.00;99.90;;;;;;5119463;28;20036;-62
2023/09/05 07:09:56;;;;;;;14.80;10.75;;;17.10;99.90;;;;;;5120096;28;20096;-62
2023/09/05 07:12:22;;;;;;;14.98;10.65;;;17.20;99.90;;;;;;5119017;28;20044;-62
2023/09/05 07:14:48;;;;;;;15.02;10.68;;;17.30;99.90;;;;;;5120287;28;20049;-62
2023/09/05 07:17:14;;;;;;;14.25;10.25;;;17.40;99.90;;;;;;5119214;28;20062;-62
2023/09/05 07:19:40;;;;;;;13.15;10.30;;;17.40;99.90;;;;;;5120154;28;20035;-62
2023/09/05 07:22:05;;;;;;;15.35;11.02;;;17.50;99.90;;;;;;5118287;28;20089;-62
2023/09/05 07:24:31;;;;;;;13.13;10.20;;;17.60;99.90;;;;;;5119458;28;20051;-62
2023/09/05 07:26:57;;;;;;;14.68;10.18;;;17.80;99.90;;;;;;5120165;28;20469;-62
2023/09/05 07:29:31;;;;;;;13.93;10.02;;;17.90;99.70;;;;;;5119048;28;20039;-62
2023/09/05 07:31:56;;;;;;;14.52;9.85;;;18.00;98.60;;;;;;5119916;28;20446;-62
2023/09/05 07:34:22;;;;;;;12.98;9.57;;;18.10;98.60;;;;;;5092730;28;20041;-62
2023/09/05 07:36:48;;;;;;;15.75;10.48;;;18.20;97.70;;;;;;5079461;28;20041;-62
2023/09/05 07:39:13;;;;;;;15.30;10.65;;;18.30;97.20;;;;;;5078801;28;20041;-61
2023/09/05 07:41:39;;;;;;;13.23;10.13;;;18.40;97.30;;;;;;5078747;28;20032;-61
2023/09/05 07:44:05;;;;;;;14.23;9.90;;;18.50;98.40;;;;;;5079443;28;20040;-62
2023/09/05 07:46:31;;;;;;;14.77;10.20;;;18.60;98.00;;;;;;5078134;28;20114;-62
2023/09/05 07:48:56;;;;;;;14.95;10.65;;;18.70;98.40;;;;;;5079294;28;20098;-62
2023/09/05 07:51:22;;;;;;;14.27;10.93;;;18.80;99.90;;;;;;5078077;28;20049;-62
2023/09/05 07:53:50;;;;;;;14.77;11.10;;;18.90;99.90;;;;;;5078482;28;20045;-62
2023/09/05 07:56:16;;;;;;;14.18;9.30;;;19.00;99.90;;;;;;5112970;28;20046;-62
2023/09/05 07:58:41;;;;;;;13.98;10.07;;;19.10;97.60;;;;;;5123232;28;20059;-64
2023/09/05 08:01:09;;;;;;;15.23;9.43;;;19.20;95.10;;;;;;5123532;28;20036;-61
2023/09/05 08:03:36;;;;;;;14.52;8.77;;;19.40;90.90;;;;;;5122726;27;20078;-62
2023/09/05 08:06:04;;;;;;;14.50;7.72;;;19.40;89.70;;;;;;5124236;28;20047;-62
2023/09/05 08:08:30;;;;;;;12.55;8.30;;;19.50;83.60;;;;;;5122695;28;20095;-61
2023/09/05 08:10:56;;;;;;;12.55;8.07;;;19.70;82.40;;;;;;5124095;28;20073;-64
2023/09/05 08:13:22;;;;;;;10.55;7.07;;;19.80;80.60;;;;;;5123273;28;20059;-62
2023/09/05 08:15:50;;;;;;;11.05;7.10;;;19.90;67.70;;;;;;5123157;28;20044;-62
2023/09/05 08:18:16;;;;;;;12.27;7.18;;;20.00;57.90;;;;;;5123522;28;20050;-61
2023/09/05 08:20:42;;;;;;;11.27;6.35;;;20.20;61.10;;;;;;5122893;28;20126;-62
2023/09/05 08:23:10;;;;;;;10.02;6.40;;;20.20;57.30;;;;;;5123893;28;20470;-62
2023/09/05 08:25:36;;;;;;;9.65;5.82;;;20.30;43.70;;;;;;5122574;28;20047;-62
2023/09/05 08:28:01;;;;;;;8.88;4.97;;;20.40;45.00;;;;;;5123896;28;20039;-62
2023/09/05 08:30:28;;;;;;;9.98;5.30;;;20.50;47.70;;;;;;5122848;28;20043;-61
2023/09/05 08:33:01;;;;;;;11.27;5.35;;;20.50;45.00;;;;;;5122695;28;20100;-62
2023/09/05 08:35:27;;;;;;;10.85;6.35;;;20.60;21.90;;;;;;5123084;28;20506;-62
2023/09/05 08:37:53;;;;;;;9.73;5.82;;;20.70;30.00;;;;;;5122062;28;20074;-62
2023/09/05 08:40:20;;;;;;;9.57;5.03;;;20.80;24.00;;;;;;5123520;28;20051;-62
2023/09/05 08:42:50;;;;;;;8.52;5.60;;;20.90;27.00;;;;;;5121772;27;20495;-62
2023/09/05 08:45:21;;;;;;;8.35;5.53;;;20.90;33.70;;;;;;5122924;28;20047;-62
2023/09/05 08:47:47;;;;;;;8.90;5.03;;;21.10;24.80;;;;;;5122528;28;20044;-62
2023/09/05 08:50:13;;;;;;;10.85;6.05;;;21.20;24.10;;;;;;5121496;28;20108;-62
2023/09/05 08:52:42;;;;;;;9.77;5.97;;;21.20;27.30;;;;;;5123241;28;20044;-62
2023/09/05 08:55:08;;;;;;;10.10;5.85;;;21.20;29.20;;;;;;5113656;28;20044;-62
2023/09/05 08:57:38;;;;;;;12.18;6.68;;;21.30;28.60;;;;;;5102637;28;20052;-62
2023/09/05 09:00:06;;;;;;;10.65;6.28;;;21.30;30.60;;;;;;5101449;28;20044;-62
2023/09/05 09:02:35;;;;;;;9.85;6.50;;;21.30;28.70;;;;;;5100516;28;20044;-62
2023/09/05 09:05:01;;;;;;;13.10;6.43;;;21.40;28.80;;;;;;5101450;28;20048;-62
2023/09/05 09:07:27;;;;;;;8.40;5.45;;;21.40;28.90;;;;;;5100835;28;20032;-62
2023/09/05 09:09:54;;;;;;;11.13;5.82;;;21.50;28.80;;;;;;5101547;28;20055;-62
2023/09/05 09:12:32;;;;;;;9.98;6.97;;;21.50;29.40;;;;;;5100930;28;20058;-62
2023/09/05 09:15:12;;;;;;;12.48;6.95;;;21.60;28.60;;;;;;5102595;28;20119;-62
2023/09/05 09:17:41;;;;;;;11.75;6.22;;;21.60;25.70;;;;;;5101661;28;20105;-61
2023/09/05 09:20:12;;;;;;;11.25;6.35;;;21.70;27.70;;;;;;5101344;28;20078;-61
2023/09/05 09:22:38;;;;;;;9.23;5.13;;;21.80;26.40;;;;;;5101777;28;20048;-60
2023/09/05 09:25:14;;;;;;;11.35;6.00;;;21.80;25.10;;;;;;5099027;28;20634;-61
2023/09/05 09:27:42;;;;;;;8.30;5.53;;;21.90;26.10;;;;;;5101764;28;20052;-62
2023/09/05 09:30:11;;;;;;;9.27;5.75;;;22.10;27.40;;;;;;5101172;28;20036;-62
2023/09/05 09:32:37;;;;;;;10.07;6.22;;;22.20;25.30;;;;;;5101753;28;20141;-62
2023/09/05 09:35:10;;;;;;;10.15;6.25;;;22.30;24.40;;;;;;5101478;28;20074;-62
2023/09/05 09:37:36;;;;;;;10.00;5.63;;;22.30;18.00;;;;;;5100758;28;20044;-62
2023/09/05 09:40:06;;;;;;;8.77;5.20;;;22.40;24.00;;;;;;5101560;28;20072;-62
2023/09/05 09:42:34;;;;;;;10.18;5.85;;;22.50;17.50;;;;;;5100511;28;20046;-62
2023/09/05 09:45:04;;;;;;;9.07;5.22;;;22.60;19.30;;;;;;5101801;28;20437;-62
2023/09/05 09:47:33;;;;;;;9.60;5.00;;;22.70;14.60;;;;;;5100998;28;20036;-62
2023/09/05 09:50:02;;;;;;;9.90;4.65;;;22.80;14.30;;;;;;5100731;28;20097;-60
2023/09/05 09:52:31;;;;;;;9.45;4.95;;;22.90;8.80;;;;;;5101354;28;20044;-60
2023/09/05 09:55:02;;;;;;;7.55;4.03;;;23.00;3.80;;;;;;5098673;28;20040;-61
2023/09/05 09:57:34;;;;;;;7.97;3.92;;;23.00;4.30;;;;;;5101704;28;20047;-61
2023/09/05 10:00:24;;;;;;;7.32;3.53;;;23.00;1.00;;;;;;5100331;28;20036;-61
2023/09/05 10:02:49;;;;;;;8.48;3.83;;;23.20;2.00;;;;;;5100273;28;20044;-61
2023/09/05 10:05:17;;;;;;;7.53;3.30;;;23.30;1.00;;;;;;5101342;28;20050;-61
2023/09/05 10:07:43;;;;;;;7.45;3.58;;;23.40;1.00;;;;;;5100098;28;20059;-60
2023/09/05 10:10:15;;;;;;;6.43;3.13;;;23.60;1.00;;;;;;5101228;28;20048;-61
2023/09/05 10:12:46;;;;;;;7.22;3.75;;;23.70;1.00;;;;;;5099930;28;20396;-61
2023/09/05 10:15:15;;;;;;;7.53;3.60;;;23.70;1.00;;;;;;5101303;28;20602;-61
2023/09/05 10:17:42;;;;;;;7.07;3.58;;;23.70;1.00;;;;;;5100645;28;20105;-62
2023/09/05 10:20:09;;;;;;;7.32;3.65;;;23.80;1.00;;;;;;5098866;28;20091;-61
2023/09/05 10:22:39;;;;;;;8.85;3.70;;;23.90;1.00;;;;;;5100897;28;20048;-61
2023/09/05 10:25:07;;;;;;;6.90;3.63;;;23.90;1.00;;;;;;5099876;28;20052;-61
2023/09/05 10:27:33;;;;;;;7.55;4.50;;;24.10;1.00;;;;;;5101214;28;20078;-61
2023/09/05 10:29:59;;;;;;;11.10;3.70;;;24.10;1.00;;;;;;5099516;28;20036;-62
2023/09/05 10:32:25;;;;;;;7.50;3.20;;;24.30;1.00;;;;;;5100471;28;20056;-61
2023/09/05 10:34:52;;;;;;;6.70;3.40;;;24.30;1.00;;;;;;5100242;28;20750;-61
2023/09/05 10:37:21;;;;;;;6.70;3.17;;;24.30;1.00;;;;;;5099841;28;20056;-61
2023/09/05 10:39:50;;;;;;;6.40;3.13;;;24.40;1.00;;;;;;5100654;28;20075;-61
2023/09/05 10:42:16;;;;;;;7.22;3.33;;;24.50;1.00;;;;;;5099503;28;20044;-61
2023/09/05 10:44:46;;;;;;;6.32;3.20;;;24.50;1.00;;;;;;5100536;28;20048;-61
2023/09/05 10:47:29;;;;;;;6.75;3.25;;;24.60;1.00;;;;;;5099377;28;20269;-61
2023/09/05 10:50:09;;;;;;;5.70;2.50;;;24.70;1.00;;;;;;5099430;28;20044;-61
2023/09/05 10:52:35;;;;;;;6.78;2.80;;;24.80;1.00;;;;;;5100244;28;20038;-61
2023/09/05 10:55:30;;;;;;;7.32;2.88;;;24.80;1.00;;;;;;5106044;28;20039;-62
2023/09/05 10:57:56;;;;;;;5.93;2.70;;;24.90;1.00;;;;;;5119808;28;20074;-61
2023/09/05 11:00:37;;;;;;;7.70;2.60;;;24.90;1.00;;;;;;5119652;28;20047;-61
2023/09/05 11:03:14;;;;;;;5.97;2.58;;;25.00;1.00;;;;;;5119657;28;20043;-61
2023/09/05 11:05:45;;;;;;;6.30;2.55;;;25.00;1.00;;;;;;5120556;28;20040;-62
2023/09/05 11:08:21;;;;;;;6.00;2.63;;;25.10;1.00;;;;;;5119290;28;20048;-62
2023/09/05 11:10:53;;;;;;;5.95;2.70;;;25.10;1.00;;;;;;5120342;28;20048;-61
2023/09/05 11:13:18;;;;;;;5.75;2.40;;;25.20;1.00;;;;;;5119511;28;20059;-61
2023/09/05 11:15:44;;;;;;;5.38;2.35;;;25.30;1.00;;;;;;5119121;28;20040;-61
2023/09/05 11:18:15;;;;;;;5.85;2.80;;;25.40;1.00;;;;;;5119958;28;20039;-61
2023/09/05 11:20:48;;;;;;;8.80;3.05;;;25.50;1.00;;;;;;5117701;28;20047;-61
2023/09/05 11:23:16;;;;;;;6.60;2.97;;;25.70;1.00;;;;;;5120539;28;20196;-61
2023/09/05 11:25:50;;;;;;;6.68;2.85;;;25.60;1.00;;;;;;5119494;28;20047;-62
2023/09/05 11:28:17;;;;;;;6.43;2.63;;;25.80;1.00;;;;;;5118392;28;20071;-61
2023/09/05 11:30:44;;;;;;;6.88;2.95;;;25.90;1.00;;;;;;5109181;28;20044;-61
2023/09/05 11:33:15;;;;;;;5.88;2.90;;;25.80;1.00;;;;;;5108442;28;20523;-62
2023/09/05 11:35:41;;;;;;;5.63;2.30;;;25.80;1.00;;;;;;5107705;28;20061;-62
2023/09/05 11:38:09;;;;;;;6.18;2.50;;;26.00;1.00;;;;;;5107078;28;20044;-62
2023/09/05 11:40:35;;;;;;;6.57;2.65;;;26.00;1.00;;;;;;5113703;28;20044;-61
2023/09/05 11:43:06;;;;;;;4.93;2.58;;;26.10;1.00;;;;;;5118944;28;20051;-61
2023/09/05 11:45:33;;;;;;;9.97;2.60;;;26.20;1.00;;;;;;5119487;28;20040;-62
2023/09/05 11:48:00;;;;;;;7.28;2.70;;;26.30;1.00;;;;;;5119884;28;20290;-61
2023/09/05 11:50:27;;;;;;;6.32;2.70;;;26.30;1.00;;;;;;5118547;28;20031;-61
2023/09/05 11:52:53;;;;;;;6.13;2.60;;;26.30;1.00;;;;;;5120264;28;20057;-61
2023/09/05 11:55:23;;;;;;;6.03;2.17;;;26.40;1.00;;;;;;5108998;28;20636;-61
2023/09/05 11:57:53;;;;;;;6.03;2.00;;;26.50;1.00;;;;;;5099659;28;20044;-61
2023/09/05 12:00:20;;;;;;;6.30;2.83;;;26.60;1.00;;;;;;5098730;28;20074;-61
2023/09/05 12:02:46;;;;;;;6.70;2.83;;;26.60;1.00;;;;;;5097307;28;20120;-61
2023/09/05 12:05:12;;;;;;;8.35;2.28;;;26.50;1.00;;;;;;5098629;28;20087;-61
2023/09/05 12:07:38;;;;;;;4.78;1.88;;;26.70;1.00;;;;;;5097973;28;20036;-62
2023/09/05 12:10:05;;;;;;;7.47;2.25;;;26.70;1.00;;;;;;5099010;28;20078;-61
2023/09/05 12:12:30;;;;;;;5.75;2.15;;;26.70;1.00;;;;;;5097007;28;20281;-61
2023/09/05 12:14:58;;;;;;;7.97;2.17;;;26.70;1.00;;;;;;5099398;28;20050;-62
2023/09/05 12:17:25;;;;;;;5.22;2.17;;;26.60;1.00;;;;;;5098359;28;20039;-62
2023/09/05 12:19:53;;;;;;;6.90;2.20;;;26.80;1.00;;;;;;5098420;28;20488;-62
2023/09/05 12:22:29;;;;;;;7.30;2.75;;;26.90;1.00;;;;;;5098681;28;20040;-61
2023/09/05 12:25:26;;;;;;;6.65;2.28;;;27.00;1.00;;;;;;5098076;28;20044;-62
2023/09/05 12:27:55;;;;;;;5.90;2.30;;;26.90;1.00;;;;;;5086539;28;20410;-62
2023/09/05 12:30:28;;;;;;;4.88;2.17;;;26.90;1.00;;;;;;5098289;28;20048;-62
2023/09/05 12:33:02;;;;;;;5.80;2.10;;;27.00;1.00;;;;;;5097833;28;20063;-62
2023/09/05 12:35:29;;;;;;;4.78;2.28;;;26.90;1.00;;;;;;5099185;28;20051;-62
2023/09/05 12:37:56;;;;;;;6.95;2.40;;;27.10;1.00;;;;;;5097268;28;20072;-63